sensor_id;sensor_type;location;lat;lon;timestamp;temperature;humidity
79055;DHT22;68452;47.186;-1.528;2023-03-14T19:57:17;20.10;51.00
79055;DHT22;68452;47.186;-1.528;2023-03-14T19:59:43;17.10;46.80
79055;DHT22;68452;47.186;-1.528;2023-03-14T20:02:13;15.00;51.00
79055;DHT22;68452;47.186;-1.528;2023-03-14T20:04:40;13.70;53.70
79055;DHT22;68452;47.186;-1.528;2023-03-14T20:07:09;12.90;55.60
79055;DHT22;68452;47.186;-1.528;2023-03-14T20:09:38;12.40;56.80
79055;DHT22;68452;47.186;-1.528;2023-03-14T20:12:03;12.10;57.90
79055;DHT22;68452;47.186;-1.528;2023-03-14T20:14:29;11.80;58.60
79055;DHT22;68452;47.186;-1.528;2023-03-14T20:16:55;11.60;59.00
79055;DHT22;68452;47.186;-1.528;2023-03-14T20:19:21;11.50;59.60
79055;DHT22;68452;47.186;-1.528;2023-03-14T20:21:48;11.40;60.00
79055;DHT22;68452;47.186;-1.528;2023-03-14T20:24:14;11.30;60.30
79055;DHT22;68452;47.186;-1.528;2023-03-14T20:26:41;11.20;60.30
79055;DHT22;68452;47.186;-1.528;2023-03-14T20:29:07;11.10;60.60
79055;DHT22;68452;47.186;-1.528;2023-03-14T20:31:34;11.10;60.70
79055;DHT22;68452;47.186;-1.528;2023-03-14T20:34:03;11.00;60.70
79055;DHT22;68452;47.186;-1.528;2023-03-14T20:36:30;11.00;60.90
79055;DHT22;68452;47.186;-1.528;2023-03-14T20:38:57;10.90;61.10
79055;DHT22;68452;47.186;-1.528;2023-03-14T20:41:23;10.90;61.00
79055;DHT22;68452;47.186;-1.528;2023-03-14T20:43:49;10.90;61.20
79055;DHT22;68452;47.186;-1.528;2023-03-14T20:46:16;10.80;61.30
79055;DHT22;68452;47.186;-1.528;2023-03-14T20:48:42;10.70;61.30
79055;DHT22;68452;47.186;-1.528;2023-03-14T20:51:11;10.70;61.60
79055;DHT22;68452;47.186;-1.528;2023-03-14T20:53:40;10.70;61.70
79055;DHT22;68452;47.186;-1.528;2023-03-14T20:56:06;10.60;61.90
79055;DHT22;68452;47.186;-1.528;2023-03-14T20:58:33;10.60;61.90
79055;DHT22;68452;47.186;-1.528;2023-03-14T21:01:00;10.60;62.00
79055;DHT22;68452;47.186;-1.528;2023-03-14T21:03:29;10.60;62.00
79055;DHT22;68452;47.186;-1.528;2023-03-14T21:05:55;10.50;62.30
79055;DHT22;68452;47.186;-1.528;2023-03-14T21:08:23;10.50;62.20
79055;DHT22;68452;47.186;-1.528;2023-03-14T21:10:51;10.50;62.20
79055;DHT22;68452;47.186;-1.528;2023-03-14T21:13:17;10.40;62.40
79055;DHT22;68452;47.186;-1.528;2023-03-14T21:15:45;10.40;62.40
79055;DHT22;68452;47.186;-1.528;2023-03-14T21:18:11;10.30;62.50
79055;DHT22;68452;47.186;-1.528;2023-03-14T21:20:39;10.30;62.70
79055;DHT22;68452;47.186;-1.528;2023-03-14T21:23:05;10.30;62.80
79055;DHT22;68452;47.186;-1.528;2023-03-14T21:25:32;10.30;62.70
79055;DHT22;68452;47.186;-1.528;2023-03-14T21:27:58;10.20;63.00
79055;DHT22;68452;47.186;-1.528;2023-03-14T21:30:24;10.20;62.90
79055;DHT22;68452;47.186;-1.528;2023-03-14T21:32:50;10.20;62.90
79055;DHT22;68452;47.186;-1.528;2023-03-14T21:35:16;10.20;63.10
79055;DHT22;68452;47.186;-1.528;2023-03-14T21:37:42;10.10;63.10
79055;DHT22;68452;47.186;-1.528;2023-03-14T21:40:10;10.10;63.20
79055;DHT22;68452;47.186;-1.528;2023-03-14T21:42:36;10.00;63.10
79055;DHT22;68452;47.186;-1.528;2023-03-14T21:45:02;10.00;63.40
79055;DHT22;68452;47.186;-1.528;2023-03-14T21:47:28;10.00;63.70
79055;DHT22;68452;47.186;-1.528;2023-03-14T21:49:54;10.00;63.60
79055;DHT22;68452;47.186;-1.528;2023-03-14T21:52:19;10.00;63.20
79055;DHT22;68452;47.186;-1.528;2023-03-14T21:54:49;9.90;63.50
79055;DHT22;68452;47.186;-1.528;2023-03-14T21:57:15;9.90;63.30
79055;DHT22;68452;47.186;-1.528;2023-03-14T21:59:44;9.80;63.40
79055;DHT22;68452;47.186;-1.528;2023-03-14T22:02:15;9.70;63.50
79055;DHT22;68452;47.186;-1.528;2023-03-14T22:04:41;9.70;63.60
79055;DHT22;68452;47.186;-1.528;2023-03-14T22:07:10;9.70;63.70
79055;DHT22;68452;47.186;-1.528;2023-03-14T22:09:39;9.70;64.00
79055;DHT22;68452;47.186;-1.528;2023-03-14T22:12:05;9.60;64.10
79055;DHT22;68452;47.186;-1.528;2023-03-14T22:14:32;9.60;64.20
79055;DHT22;68452;47.186;-1.528;2023-03-14T22:16:58;9.60;64.10
79055;DHT22;68452;47.186;-1.528;2023-03-14T22:19:29;9.50;63.90
79055;DHT22;68452;47.186;-1.528;2023-03-14T22:21:56;9.40;63.90
79055;DHT22;68452;47.186;-1.528;2023-03-14T22:24:22;9.40;63.90
79055;DHT22;68452;47.186;-1.528;2023-03-14T22:26:50;9.30;63.80
79055;DHT22;68452;47.186;-1.528;2023-03-14T22:29:18;9.30;64.20
79055;DHT22;68452;47.186;-1.528;2023-03-14T22:31:44;9.20;64.10
79055;DHT22;68452;47.186;-1.528;2023-03-14T22:34:11;9.20;64.10
79055;DHT22;68452;47.186;-1.528;2023-03-14T22:36:37;9.20;64.20
79055;DHT22;68452;47.186;-1.528;2023-03-14T22:39:03;9.20;64.20
79055;DHT22;68452;47.186;-1.528;2023-03-14T22:41:31;9.10;64.30
79055;DHT22;68452;47.186;-1.528;2023-03-14T22:43:57;9.10;64.30
79055;DHT22;68452;47.186;-1.528;2023-03-14T22:46:23;9.10;64.30
79055;DHT22;68452;47.186;-1.528;2023-03-14T22:48:49;9.00;64.50
79055;DHT22;68452;47.186;-1.528;2023-03-14T22:51:15;9.00;64.50
79055;DHT22;68452;47.186;-1.528;2023-03-14T22:53:41;9.00;64.80
79055;DHT22;68452;47.186;-1.528;2023-03-14T22:56:08;9.00;64.80
79055;DHT22;68452;47.186;-1.528;2023-03-14T22:58:34;8.90;64.80
79055;DHT22;68452;47.186;-1.528;2023-03-14T23:01:00;8.90;65.00
79055;DHT22;68452;47.186;-1.528;2023-03-14T23:03:26;8.90;65.10
79055;DHT22;68452;47.186;-1.528;2023-03-14T23:05:53;8.90;65.00
79055;DHT22;68452;47.186;-1.528;2023-03-14T23:08:19;8.90;65.00
79055;DHT22;68452;47.186;-1.528;2023-03-14T23:10:45;8.90;64.90
79055;DHT22;68452;47.186;-1.528;2023-03-14T23:13:11;8.80;64.70
79055;DHT22;68452;47.186;-1.528;2023-03-14T23:15:40;8.80;64.60
79055;DHT22;68452;47.186;-1.528;2023-03-14T23:18:08;8.80;64.70
79055;DHT22;68452;47.186;-1.528;2023-03-14T23:20:34;8.80;64.80
79055;DHT22;68452;47.186;-1.528;2023-03-14T23:23:00;8.80;64.80
79055;DHT22;68452;47.186;-1.528;2023-03-14T23:25:26;8.70;64.70
79055;DHT22;68452;47.186;-1.528;2023-03-14T23:27:51;8.70;64.60
79055;DHT22;68452;47.186;-1.528;2023-03-14T23:30:19;8.60;64.60
79055;DHT22;68452;47.186;-1.528;2023-03-14T23:32:45;8.60;64.70
79055;DHT22;68452;47.186;-1.528;2023-03-14T23:35:12;8.60;64.70
79055;DHT22;68452;47.186;-1.528;2023-03-14T23:37:38;8.50;64.70
79055;DHT22;68452;47.186;-1.528;2023-03-14T23:40:05;8.50;64.80
79055;DHT22;68452;47.186;-1.528;2023-03-14T23:42:33;8.40;65.00
79055;DHT22;68452;47.186;-1.528;2023-03-14T23:44:59;8.40;64.90
79055;DHT22;68452;47.186;-1.528;2023-03-14T23:47:26;8.40;64.70
79055;DHT22;68452;47.186;-1.528;2023-03-14T23:49:52;8.40;64.70
79055;DHT22;68452;47.186;-1.528;2023-03-14T23:52:17;8.40;64.80
79055;DHT22;68452;47.186;-1.528;2023-03-14T23:54:43;8.30;64.80
79055;DHT22;68452;47.186;-1.528;2023-03-14T23:57:09;8.30;64.80
79055;DHT22;68452;47.186;-1.528;2023-03-14T23:59:36;8.30;65.00
